Time;durP1;ratioP1;P1;durP2;ratioP2;P2;SDS_P1;SDS_P2;PMS_P1;PMS_P2;Temp;Humidity;BMP_temperature;BMP_pressure;BME280_temperature;BME280_humidity;BME280_pressure;Samples;Min_cycle;Max_cycle;Signal;HPM_P1;HPM_P2
2023/12/09 00:00:17;;;;;;;43.40;26.65;;;;;;;4.14;100.00;100464.06;5134307;27;20046;-66
2023/12/09 00:03:40;;;;;;;39.45;25.88;;;;;;;4.10;100.00;100462.47;5133937;27;20042;-65
2023/12/09 00:06:57;;;;;;;36.92;25.70;;;;;;;4.03;100.00;100463.53;5134315;27;20497;-65
2023/12/09 00:10:31;;;;;;;39.15;27.27;;;;;;;4.02;100.00;100457.50;5133883;27;20088;-65
2023/12/09 00:13:51;;;;;;;36.83;27.25;;;;;;;3.99;100.00;100451.53;5134009;27;20041;-65
2023/12/09 00:17:09;;;;;;;34.13;25.00;;;;;;;4.03;100.00;100451.44;5134214;27;20509;-65
2023/12/09 00:20:31;;;;;;;37.40;26.55;;;;;;;3.99;100.00;100456.72;5133951;27;20038;-66
2023/12/09 00:23:59;;;;;;;32.95;26.30;;;;;;;4.05;100.00;100465.19;5133857;27;20038;-65
2023/12/09 00:27:12;;;;;;;42.50;26.48;;;;;;;3.86;100.00;100475.16;5134027;27;20046;-66
2023/12/09 00:30:33;;;;;;;33.10;25.15;;;;;;;3.89;100.00;100464.75;5132788;27;20528;-65
2023/12/09 00:34:07;;;;;;;35.83;24.65;;;;;;;4.00;100.00;100472.22;5133958;27;20104;-66
2023/12/09 00:37:40;;;;;;;37.38;23.95;;;;;;;3.96;100.00;100476.63;5133635;27;20505;-66
2023/12/09 00:41:07;;;;;;;33.97;24.73;;;;;;;4.09;100.00;100478.88;5133614;27;20046;-65
2023/12/09 00:44:31;;;;;;;33.90;24.27;;;;;;;4.18;100.00;100470.88;5133767;27;20046;-66
2023/12/09 00:47:59;;;;;;;33.60;25.90;;;;;;;4.15;100.00;100478.72;5133617;28;20045;-65
2023/12/09 00:51:24;;;;;;;34.30;25.35;;;;;;;4.13;100.00;100478.75;5133707;28;20046;-65
2023/12/09 00:54:30;;;;;;;31.75;25.40;;;;;;;4.10;100.00;100467.66;5133591;28;20081;-66
2023/12/09 00:57:54;;;;;;;34.58;25.95;;;;;;;4.13;100.00;100464.97;5133572;28;20038;-65
2023/12/09 01:01:19;;;;;;;33.78;26.38;;;;;;;4.06;100.00;100458.28;5133683;28;20460;-65
2023/12/09 01:04:38;;;;;;;33.88;23.98;;;;;;;3.95;100.00;100456.78;5113142;28;20050;-65
2023/12/09 01:07:59;;;;;;;33.05;23.10;;;;;;;3.95;100.00;100459.38;5112933;28;20097;-66
2023/12/09 01:11:25;;;;;;;30.65;23.58;;;;;;;3.80;100.00;100456.34;5113174;28;20227;-65
2023/12/09 01:14:37;;;;;;;35.92;24.75;;;;;;;3.62;100.00;100447.31;5112599;28;20051;-66
2023/12/09 01:17:42;;;;;;;30.13;21.98;;;;;;;3.72;100.00;100459.13;5113367;28;20046;-65
2023/12/09 01:21:01;;;;;;;32.13;20.75;;;;;;;3.66;100.00;100461.88;5112945;28;20058;-65
2023/12/09 01:24:20;;;;;;;26.95;21.00;;;;;;;3.57;100.00;100469.84;5112565;28;20086;-65
2023/12/09 01:27:43;;;;;;;30.63;22.58;;;;;;;3.64;100.00;100476.59;5112817;28;20556;-65
2023/12/09 01:31:14;;;;;;;28.90;22.73;;;;;;;3.63;100.00;100480.88;5092347;28;20051;-65
2023/12/09 01:34:45;;;;;;;31.42;21.17;;;;;;;3.57;100.00;100478.44;5081899;28;20051;-65
2023/12/09 01:38:11;;;;;;;30.75;21.50;;;;;;;3.62;100.00;100480.94;5092486;28;20431;-66
2023/12/09 01:41:26;;;;;;;27.40;20.30;;;;;;;3.60;100.00;100475.78;5094416;28;20050;-66
2023/12/09 01:44:46;;;;;;;;;;;;;;;3.61;100.00;100479.25;5096647;28;20050;-65
2023/12/09 01:48:10;;;;;;;;;;;;;;;3.63;100.00;100475.72;5096456;28;19962;-65
2023/12/09 01:51:38;;;;;;;29.88;20.45;;;;;;;3.62;100.00;100478.34;5096101;28;19937;-65
2023/12/09 01:55:03;;;;;;;30.52;21.55;;;;;;;3.63;100.00;100477.44;5096279;28;20457;-66
2023/12/09 01:58:36;;;;;;;30.20;21.45;;;;;;;3.73;100.00;100479.78;5095812;28;20070;-66
2023/12/09 02:02:04;;;;;;;31.40;22.58;;;;;;;3.59;100.00;100468.94;5096170;28;20051;-65
2023/12/09 02:05:23;;;;;;;33.78;22.98;;;;;;;3.67;100.00;100467.00;5095836;28;20046;-65
2023/12/09 02:08:28;;;;;;;37.40;23.25;;;;;;;3.71;100.00;100460.03;5095648;28;20408;-66
2023/12/09 02:12:05;;;;;;;31.90;21.60;;;;;;;3.80;100.00;100449.44;5095723;28;20543;-66
2023/12/09 02:15:40;;;;;;;30.45;22.13;;;;;;;3.83;100.00;100457.13;5095062;28;20457;-66
2023/12/09 02:19:07;;;;;;;35.15;23.35;;;;;;;3.79;100.00;100437.38;5095407;28;20177;-66
2023/12/09 02:22:34;;;;;;;35.63;21.50;;;;;;;3.70;100.00;100443.66;5095109;28;20118;-66
2023/12/09 02:25:44;;;;;;;37.33;22.88;;;;;;;3.71;100.00;100442.78;5095519;28;20519;-66
2023/12/09 02:29:03;;;;;;;34.40;23.73;;;;;;;3.73;100.00;100437.53;5097254;28;20054;-66
2023/12/09 02:32:30;;;;;;;39.47;23.77;;;;;;;3.75;100.00;100427.19;5115260;28;20104;-66
2023/12/09 02:36:01;;;;;;;34.25;22.77;;;;;;;3.66;100.00;100436.00;5115298;28;20501;-66
2023/12/09 02:39:21;;;;;;;40.83;25.30;;;;;;;3.63;100.00;100412.81;5115685;28;20123;-66
2023/12/09 02:42:44;;;;;;;32.78;21.42;;;;;;;3.69;100.00;100420.41;5115488;28;20058;-66
2023/12/09 02:46:00;;;;;;;34.17;23.48;;;;;;;3.71;100.00;100423.81;5114572;28;20407;-66
2023/12/09 02:49:23;;;;;;;29.23;22.23;;;;;;;3.62;100.00;100408.53;5115257;28;20058;-66
2023/12/09 02:52:49;;;;;;;34.72;22.55;;;;;;;3.61;100.00;100410.28;5114700;28;20042;-66
2023/12/09 02:56:09;;;;;;;35.08;23.88;;;;;;;3.66;100.00;100399.81;5115252;28;20043;-66
2023/12/09 02:59:30;;;;;;;35.30;24.17;;;;;;;3.56;100.00;100406.94;5115475;28;20037;-66
2023/12/09 03:02:41;;;;;;;32.92;23.33;;;;;;;3.57;100.00;100407.78;5114233;28;20533;-66
2023/12/09 03:06:12;;;;;;;31.90;22.33;;;;;;;3.58;100.00;100414.69;5114369;28;20047;-66
2023/12/09 03:09:25;;;;;;;33.58;21.48;;;;;;;3.48;100.00;100404.56;5114491;28;20039;-66
2023/12/09 03:12:36;;;;;;;27.50;20.15;;;;;;;3.51;100.00;100403.66;5113986;28;20062;-66
2023/12/09 03:16:10;;;;;;;30.83;20.95;;;;;;;3.38;100.00;100410.88;5115019;28;20084;-66
2023/12/09 03:19:30;;;;;;;30.80;19.95;;;;;;;3.43;100.00;100411.56;5114771;28;20078;-66
2023/12/09 03:22:58;;;;;;;29.73;20.85;;;;;;;3.36;100.00;100412.63;5114641;28;20043;-66
2023/12/09 03:26:24;;;;;;;32.00;20.70;;;;;;;3.31;100.00;100413.63;5114517;28;20050;-66
2023/12/09 03:29:42;;;;;;;31.30;20.60;;;;;;;3.42;100.00;100414.22;5101233;28;20509;-66
2023/12/09 03:32:57;;;;;;;34.03;20.17;;;;;;;3.41;100.00;100404.75;5113694;28;20047;-66
2023/12/09 03:36:21;;;;;;;35.00;22.13;;;;;;;3.43;100.00;100403.81;5113352;28;20081;-66
2023/12/09 03:39:43;;;;;;;34.45;23.65;;;;;;;3.52;100.00;100401.91;5114187;28;20128;-66
2023/12/09 03:43:04;;;;;;;37.08;22.27;;;;;;;3.55;100.00;100409.59;5113733;28;20091;-66
2023/12/09 03:46:29;;;;;;;38.10;22.92;;;;;;;3.30;100.00;100417.94;5113175;28;20050;-66
2023/12/09 03:49:51;;;;;;;38.03;23.00;;;;;;;3.31;100.00;100411.03;5113689;28;20051;-65
2023/12/09 03:53:15;;;;;;;38.88;24.50;;;;;;;3.50;100.00;100410.53;5113872;28;20113;-65
2023/12/09 03:56:44;;;;;;;30.92;21.58;;;;;;;3.42;100.00;100401.28;5113468;28;20120;-66
2023/12/09 04:00:10;;;;;;;33.45;20.10;;;;;;;3.45;100.00;100396.03;5113938;28;20503;-66
2023/12/09 04:03:22;;;;;;;36.50;19.50;;;;;;;3.43;100.00;100392.63;5112836;28;20077;-65
2023/12/09 04:06:32;;;;;;;34.20;22.13;;;;;;;3.39;100.00;100401.38;5113626;28;20046;-65
2023/12/09 04:09:42;;;;;;;37.60;24.27;;;;;;;3.34;100.00;100395.44;5113765;28;20043;-66
2023/12/09 04:13:04;;;;;;;40.95;24.92;;;;;;;3.45;100.00;100409.81;5112907;28;20446;-65
2023/12/09 04:16:23;;;;;;;42.92;25.00;;;;;;;3.41;100.00;100395.25;5112616;28;20061;-65
2023/12/09 04:19:43;;;;;;;32.72;22.33;;;;;;;3.57;100.00;100394.88;5112472;28;20050;-65
2023/12/09 04:23:04;;;;;;;31.92;20.58;;;;;;;3.47;100.00;100391.66;5113147;28;20097;-66
2023/12/09 04:26:17;;;;;;;32.10;21.92;;;;;;;3.48;100.00;100394.22;5112527;28;20091;-66
2023/12/09 04:29:32;;;;;;;39.20;23.42;;;;;;;3.49;100.00;100383.00;5111653;28;20051;-66
2023/12/09 04:32:38;;;;;;;31.80;22.52;;;;;;;3.42;100.00;100371.13;5112298;28;20237;-66
2023/12/09 04:35:59;;;;;;;31.05;20.92;;;;;;;3.47;100.00;100358.06;5112619;28;20073;-66
2023/12/09 04:39:16;;;;;;;29.77;21.00;;;;;;;3.49;100.00;100362.31;5112111;28;20100;-65
2023/12/09 04:42:33;;;;;;;29.67;21.52;;;;;;;3.48;100.00;100360.63;5112290;28;20506;-66
2023/12/09 04:45:52;;;;;;;26.10;19.50;;;;;;;3.54;100.00;100369.09;5112283;28;20073;-65
2023/12/09 04:49:17;;;;;;;29.00;20.10;;;;;;;3.46;100.00;100372.72;5112639;28;20106;-66
2023/12/09 04:52:47;;;;;;;27.88;19.48;;;;;;;3.44;100.00;100369.31;5113102;28;20043;-66
2023/12/09 04:55:58;;;;;;;31.88;22.08;;;;;;;3.39;100.00;100355.69;5113010;28;20534;-67
2023/12/09 04:59:09;;;;;;;32.47;21.95;;;;;;;3.38;100.00;100359.16;5112422;28;20046;-66
2023/12/09 05:02:25;;;;;;;33.08;22.75;;;;;;;3.48;100.00;100350.28;5113087;28;20419;-67
2023/12/09 05:05:41;;;;;;;34.47;23.38;;;;;;;3.38;100.00;100366.03;5110569;28;20070;-67
2023/12/09 05:09:05;;;;;;;33.35;22.27;;;;;;;3.36;100.00;100360.94;5112566;28;20120;-67
2023/12/09 05:12:24;;;;;;;33.70;21.80;;;;;;;3.39;100.00;100360.00;5112656;28;20514;-67
2023/12/09 05:15:43;;;;;;;29.42;21.17;;;;;;;3.33;100.00;100355.84;5113603;28;20087;-67
2023/12/09 05:18:55;;;;;;;30.17;20.77;;;;;;;3.35;100.00;100353.19;5116191;28;20092;-67
2023/12/09 05:22:14;;;;;;;29.10;20.15;;;;;;;3.32;100.00;100343.81;5116999;28;20038;-67
2023/12/09 05:25:29;;;;;;;27.00;20.05;;;;;;;3.40;100.00;100344.44;5117046;28;20047;-67
2023/12/09 05:28:45;;;;;;;33.95;21.33;;;;;;;3.47;100.00;100353.72;5116807;28;20038;-66
2023/12/09 05:32:16;;;;;;;32.35;21.00;;;;;;;3.49;100.00;100336.47;5096452;28;20051;-67
2023/12/09 05:35:47;;;;;;;30.23;20.27;;;;;;;3.32;100.00;100333.47;5096040;28;20096;-67
2023/12/09 05:38:58;;;;;;;32.50;20.42;;;;;;;3.24;100.00;100327.66;5099194;28;20617;-66
2023/12/09 05:42:09;;;;;;;29.73;20.83;;;;;;;3.22;100.00;100327.69;5095707;28;20089;-66
2023/12/09 05:45:25;;;;;;;31.45;21.60;;;;;;;3.25;100.00;100321.56;5108858;28;20047;-66
2023/12/09 05:48:36;;;;;;;32.97;21.70;;;;;;;3.38;100.00;100323.00;5097871;28;20468;-66
2023/12/09 05:51:45;;;;;;;34.42;22.73;;;;;;;3.25;100.00;100317.28;5096156;28;20039;-66
2023/12/09 05:55:04;;;;;;;30.77;21.65;;;;;;;3.31;100.00;100326.59;5096015;28;20173;-67
2023/12/09 05:58:30;;;;;;;32.70;21.55;;;;;;;3.33;100.00;100318.81;5095731;28;20526;-66
2023/12/09 06:02:03;;;;;;;34.33;22.73;;;;;;;3.42;100.00;100303.06;5095771;28;20116;-66
2023/12/09 06:05:24;;;;;;;31.55;21.75;;;;;;;3.33;100.00;100293.81;5095696;28;20046;-67
2023/12/09 06:08:39;;;;;;;32.45;22.88;;;;;;;3.28;100.00;100290.50;5095218;28;20063;-66
2023/12/09 06:11:51;;;;;;;32.50;21.80;;;;;;;3.37;100.00;100308.34;5095629;28;20054;-66
2023/12/09 06:15:10;;;;;;;35.70;21.42;;;;;;;3.31;100.00;100303.34;5095117;28;20050;-67
2023/12/09 06:18:17;;;;;;;28.40;18.88;;;;;;;3.35;100.00;100307.56;5094712;28;20043;-66
2023/12/09 06:21:32;;;;;;;28.90;19.02;;;;;;;3.36;100.00;100311.81;5095573;28;20066;-67
2023/12/09 06:24:51;;;;;;;25.30;16.67;;;;;;;3.10;100.00;100306.50;5115211;28;20045;-66
2023/12/09 06:28:05;;;;;;;25.80;17.20;;;;;;;2.96;100.00;100310.22;5114703;28;20051;-67
2023/12/09 06:31:39;;;;;;;25.83;17.70;;;;;;;3.12;100.00;100307.28;5134851;27;20054;-67
2023/12/09 06:35:01;;;;;;;29.95;19.38;;;;;;;3.22;100.00;100306.16;5136189;27;20050;-67
2023/12/09 06:38:25;;;;;;;23.15;17.73;;;;;;;3.26;100.00;100300.03;5136166;27;20543;-67
2023/12/09 06:41:40;;;;;;;24.65;18.20;;;;;;;3.24;100.00;100288.88;5135979;27;20042;-67
2023/12/09 06:45:02;;;;;;;35.13;18.23;;;;;;;3.14;100.00;100301.19;5136000;27;20472;-67
2023/12/09 06:48:25;;;;;;;28.23;18.42;;;;;;;3.15;100.00;100309.78;5135748;27;20509;-67
2023/12/09 06:51:43;;;;;;;25.23;17.95;;;;;;;3.11;100.00;100305.59;5136220;27;20066;-67
2023/12/09 06:55:03;;;;;;;;;;;;;;;3.17;100.00;100313.19;5136299;27;20050;-67
2023/12/09 06:58:07;;;;;;;27.63;16.42;;;;;;;3.17;100.00;100310.59;5135960;27;19922;-67
2023/12/09 07:01:31;;;;;;;26.45;18.27;;;;;;;3.17;100.00;100305.44;5133438;27;20132;-67
2023/12/09 07:04:40;;;;;;;28.02;19.83;;;;;;;3.23;100.00;100320.78;5133141;27;20180;-67
2023/12/09 07:07:56;;;;;;;26.58;17.60;;;;;;;3.29;100.00;100312.88;5119855;27;20130;-67
2023/12/09 07:11:18;;;;;;;24.25;18.75;;;;;;;3.23;100.00;100324.22;5134572;27;20042;-67
2023/12/09 07:14:27;;;;;;;28.58;19.17;;;;;;;3.23;100.00;100319.03;5129668;27;20096;-67
2023/12/09 07:17:43;;;;;;;28.08;17.73;;;;;;;3.39;100.00;100314.34;5132886;27;20103;-68
2023/12/09 07:21:02;;;;;;;32.88;20.67;;;;;;;3.26;100.00;100307.78;5133718;27;20091;-68
2023/12/09 07:24:19;;;;;;;34.17;21.70;;;;;;;3.37;100.00;100303.19;5133437;27;20096;-66
2023/12/09 07:27:47;;;;;;;36.33;23.02;;;;;;;3.37;100.00;100310.94;5121944;27;20038;-65
2023/12/09 07:31:02;;;;;;;39.80;23.85;;;;;;;3.32;100.00;100307.63;5127759;27;20094;-66
2023/12/09 07:34:18;;;;;;;31.75;20.73;;;;;;;3.30;100.00;100293.91;5117349;27;20399;-65
2023/12/09 07:37:40;;;;;;;34.35;20.92;;;;;;;3.29;100.00;100291.34;5123459;27;20046;-66
2023/12/09 07:40:54;;;;;;;32.17;21.65;;;;;;;3.33;100.00;100296.41;5132763;27;20119;-66
2023/12/09 07:44:15;;;;;;;29.95;20.75;;;;;;;3.47;100.00;100299.44;5134059;27;20050;-66
2023/12/09 07:47:22;;;;;;;25.58;18.88;;;;;;;3.39;100.00;100301.41;5133922;27;20085;-66
2023/12/09 07:50:29;;;;;;;32.92;19.63;;;;;;;3.37;100.00;100290.25;5127308;27;20422;-66
2023/12/09 07:53:36;;;;;;;31.63;19.92;;;;;;;3.30;100.00;100283.56;5131038;27;20116;-66
2023/12/09 07:56:40;;;;;;;30.38;19.85;;;;;;;3.37;100.00;100276.50;5120814;27;20624;-66
2023/12/09 07:59:45;;;;;;;28.73;18.63;;;;;;;3.43;100.00;100247.91;5133483;27;20092;-66
2023/12/09 08:02:52;;;;;;;26.05;18.33;;;;;;;3.40;100.00;100241.06;5133693;27;20045;-67
2023/12/09 08:05:55;;;;;;;25.23;16.67;;;;;;;3.26;100.00;100235.44;5121341;27;20108;-66
2023/12/09 08:09:02;;;;;;;21.92;16.25;;;;;;;3.12;100.00;100222.03;5134095;27;20053;-66
2023/12/09 08:12:11;;;;;;;24.15;18.15;;;;;;;3.26;100.00;100228.53;5133644;27;20122;-67
2023/12/09 08:15:19;;;;;;;22.57;16.60;;;;;;;3.28;100.00;100223.31;5133373;27;20605;-67
2023/12/09 08:18:23;;;;;;;28.27;19.90;;;;;;;3.35;100.00;100219.69;5133226;27;20271;-67
2023/12/09 08:21:27;;;;;;;24.92;18.67;;;;;;;3.32;100.00;100205.97;5133475;27;20061;-66
2023/12/09 08:24:31;;;;;;;25.23;17.67;;;;;;;3.28;100.00;100192.31;5120050;27;20050;-67
2023/12/09 08:27:38;;;;;;;24.70;17.92;;;;;;;3.27;100.00;100190.63;5132234;27;20552;-67
2023/12/09 08:30:46;;;;;;;26.63;17.95;;;;;;;3.42;100.00;100184.19;5132459;27;20135;-67
2023/12/09 08:33:50;;;;;;;22.40;17.80;;;;;;;3.38;100.00;100178.25;5132176;27;20046;-66
2023/12/09 08:36:54;;;;;;;23.15;17.02;;;;;;;3.39;100.00;100174.78;5132661;27;20429;-66
2023/12/09 08:40:10;;;;;;;21.83;16.10;;;;;;;3.42;100.00;100173.84;5108404;27;20566;-66
2023/12/09 08:43:14;;;;;;;27.00;16.08;;;;;;;3.43;100.00;100168.63;5103896;27;20181;-67
2023/12/09 08:46:19;;;;;;;21.60;15.50;;;;;;;3.45;100.00;100148.75;5107497;28;20061;-67
2023/12/09 08:49:24;;;;;;;23.17;16.10;;;;;;;3.44;100.00;100141.88;5113535;27;20038;-67
2023/12/09 08:52:28;;;;;;;24.60;17.25;;;;;;;3.48;100.00;100132.31;5100279;28;20471;-67
2023/12/09 08:55:39;;;;;;;18.63;14.80;;;;;;;3.52;100.00;100133.06;5095076;28;20067;-67
2023/12/09 08:58:51;;;;;;;23.42;17.13;;;;;;;3.44;100.00;100128.94;5091797;28;20388;-65
2023/12/09 09:02:03;;;;;;;27.00;15.98;;;;;;;3.47;100.00;100123.69;5091761;28;20091;-65
2023/12/09 09:05:07;;;;;;;23.65;17.45;;;;;;;3.49;100.00;100129.66;5110667;28;20117;-65
2023/12/09 09:08:10;;;;;;;22.40;15.55;;;;;;;3.55;100.00;100133.81;5111205;28;20093;-65
2023/12/09 09:11:13;;;;;;;25.70;16.00;;;;;;;3.53;100.00;100137.34;5111328;28;20043;-65
2023/12/09 09:14:17;;;;;;;23.92;16.80;;;;;;;3.55;100.00;100117.47;5111170;28;20050;-66
2023/12/09 09:17:21;;;;;;;26.20;19.50;;;;;;;3.61;100.00;100109.53;5111128;28;20034;-66
2023/12/09 09:20:37;;;;;;;30.70;20.92;;;;;;;3.66;100.00;100094.69;5111674;28;20096;-68
2023/12/09 09:23:56;;;;;;;27.65;17.77;;;;;;;3.75;100.00;100128.03;5111401;28;20119;-66
2023/12/09 09:27:12;;;;;;;20.17;15.27;;;;;;;3.82;100.00;100147.63;5111157;28;20047;-67
2023/12/09 09:30:26;;;;;;;23.73;17.55;;;;;;;3.87;100.00;100134.59;5131917;27;20509;-65
2023/12/09 09:33:35;;;;;;;27.77;19.35;;;;;;;3.85;100.00;100142.38;5152957;27;20454;-66
2023/12/09 09:36:38;;;;;;;;;;;;;;;3.94;100.00;100133.50;5134090;27;20053;-65
2023/12/09 09:39:43;;;;;;;21.67;15.35;;;;;;;3.95;100.00;100117.91;5119090;27;19918;-66
2023/12/09 09:42:58;;;;;;;17.40;14.18;;;;;;;4.09;100.00;100132.19;5131661;28;20049;-64
2023/12/09 09:46:03;;;;;;;18.30;13.90;;;;;;;4.21;100.00;100129.16;5119215;28;20046;-65
2023/12/09 09:49:10;;;;;;;18.15;13.55;;;;;;;4.29;100.00;100128.94;5131596;28;20070;-66
2023/12/09 09:52:17;;;;;;;16.88;13.52;;;;;;;4.26;100.00;100129.03;5131483;28;20126;-66
2023/12/09 09:55:22;;;;;;;19.08;14.05;;;;;;;4.29;100.00;100119.44;5131790;27;20176;-66
2023/12/09 09:58:26;;;;;;;19.50;14.27;;;;;;;4.25;100.00;100110.06;5118925;28;20045;-66
2023/12/09 10:01:31;;;;;;;16.42;11.98;;;;;;;4.35;100.00;100097.69;5131364;27;20062;-66
2023/12/09 10:04:34;;;;;;;17.73;13.77;;;;;;;4.35;100.00;100087.31;5134930;27;20053;-66
2023/12/09 10:07:39;;;;;;;19.30;13.93;;;;;;;4.31;100.00;100081.41;5134436;27;20124;-65
2023/12/09 10:10:43;;;;;;;19.75;14.48;;;;;;;4.19;100.00;100063.69;5134566;27;20042;-65
2023/12/09 10:13:47;;;;;;;17.00;12.90;;;;;;;4.22;100.00;100058.41;5135637;27;20484;-65
2023/12/09 10:16:50;;;;;;;;;;;;;;;4.34;100.00;100036.44;5135128;27;20112;-66
2023/12/09 10:19:55;;;;;;;19.90;14.93;;;;;;;4.34;100.00;100037.31;5134918;27;19918;-66
2023/12/09 10:23:00;;;;;;;19.92;14.43;;;;;;;4.25;100.00;100018.66;5134411;27;20094;-66
2023/12/09 10:26:04;;;;;;;26.00;17.52;;;;;;;4.37;100.00;100008.72;5134598;27;20078;-65
2023/12/09 10:29:07;;;;;;;23.98;15.27;;;;;;;4.53;100.00;100003.84;5134385;27;20057;-70
2023/12/09 10:32:12;;;;;;;20.77;16.10;;;;;;;4.60;100.00;99976.00;5134432;27;20072;-64
2023/12/09 10:35:17;;;;;;;23.45;15.57;;;;;;;4.76;100.00;99956.41;5134391;27;20104;-65
2023/12/09 10:38:20;;;;;;;22.95;17.80;;;;;;;4.75;100.00;99939.16;5134310;27;20079;-65
2023/12/09 10:41:26;;;;;;;19.45;14.13;;;;;;;4.79;100.00;99930.38;5134318;27;20045;-68
2023/12/09 10:44:30;;;;;;;19.73;14.35;;;;;;;4.79;100.00;99911.41;5133117;27;20037;-68
2023/12/09 10:47:34;;;;;;;17.48;11.13;;;;;;;5.02;100.00;99894.97;5134010;27;20064;-68
2023/12/09 10:50:38;;;;;;;17.88;11.50;;;;;;;5.04;100.00;99890.53;5133275;27;20088;-68
2023/12/09 10:53:42;;;;;;;19.27;10.27;;;;;;;5.29;100.00;99882.63;5133758;27;20045;-68
2023/12/09 10:56:45;;;;;;;;;;;;;;;5.34;100.00;99868.59;5134274;27;20085;-68
2023/12/09 10:59:49;;;;;;;16.52;6.07;;;;;;;6.00;100.00;99847.66;5134034;27;20402;-67
2023/12/09 11:02:53;;;;;;;18.98;7.10;;;;;;;6.42;100.00;99845.78;5133886;27;20111;-68
2023/12/09 11:05:59;;;;;;;24.25;6.20;;;;;;;6.52;100.00;99841.84;5133638;27;20064;-67
2023/12/09 11:09:06;;;;;;;21.92;6.22;;;;;;;6.51;100.00;99845.38;5133716;27;20112;-67
2023/12/09 11:12:09;;;;;;;20.08;5.40;;;;;;;6.57;100.00;99832.06;5128894;27;20076;-67
2023/12/09 11:15:19;;;;;;;18.55;6.30;;;;;;;6.88;100.00;99834.06;5133708;27;20513;-68
2023/12/09 11:18:22;;;;;;;27.98;13.95;;;;;;;7.12;100.00;99826.84;5121077;27;20814;-67
2023/12/09 11:21:26;;;;;;;;;;;;;;;7.23;99.90;99827.16;5134047;27;20041;-67
2023/12/09 11:24:30;;;;;;;15.95;5.57;;;;;;;7.11;99.87;99822.53;5133462;27;20282;-66
2023/12/09 11:27:36;;;;;;;11.85;3.53;;;;;;;7.17;99.17;99804.03;5133115;27;20083;-67
2023/12/09 11:30:42;;;;;;;11.98;4.53;;;;;;;7.29;98.42;99793.97;5146096;27;20046;-67
2023/12/09 11:33:46;;;;;;;14.13;3.42;;;;;;;7.35;96.74;99799.69;5154286;27;20095;-66
2023/12/09 11:36:54;;;;;;;22.08;4.20;;;;;;;7.44;97.10;99806.19;5153811;27;20085;-67
2023/12/09 11:40:00;;;;;;;12.35;4.65;;;;;;;7.37;97.40;99808.28;5154178;27;20134;-67
2023/12/09 11:43:03;;;;;;;17.85;11.27;;;;;;;7.45;96.85;99807.88;5154254;27;20046;-67
2023/12/09 11:46:07;;;;;;;17.27;4.32;;;;;;;7.35;97.03;99806.66;5153520;27;20102;-66
2023/12/09 11:49:10;;;;;;;;;;;;;;;7.22;97.95;99796.88;5155345;27;20067;-67
2023/12/09 11:52:13;;;;;;;20.75;3.88;;;;;;;7.09;98.53;99772.41;5164821;27;20290;-67
2023/12/09 11:55:17;;;;;;;17.70;4.05;;;;;;;7.19;98.85;99770.19;5153855;27;20091;-67
2023/12/09 11:58:23;;;;;;;9.82;3.50;;;;;;;7.05;99.22;99752.69;5153759;27;20182;-67
2023/12/09 12:01:29;;;;;;;14.50;3.60;;;;;;;7.01;98.90;99743.34;5141230;27;20046;-66
2023/12/09 12:04:34;;;;;;;10.38;3.90;;;;;;;7.00;98.72;99728.69;5133107;27;20406;-66
2023/12/09 12:07:40;;;;;;;16.60;4.95;;;;;;;7.07;97.54;99717.03;5132682;27;20403;-66
2023/12/09 12:10:48;;;;;;;16.73;4.32;;;;;;;7.06;97.94;99715.38;5133179;27;20046;-64
2023/12/09 12:14:04;;;;;;;13.70;3.38;;;;;;;7.04;97.24;99703.38;5132651;27;20548;-65
2023/12/09 12:17:18;;;;;;;13.23;3.58;;;;;;;6.96;97.84;99691.59;5112461;28;20098;-65
2023/12/09 12:20:32;;;;;;;14.65;3.40;;;;;;;6.88;99.06;99696.34;5112312;28;20042;-65
2023/12/09 12:23:42;;;;;;;15.25;4.07;;;;;;;6.86;99.78;99690.41;5112225;27;20054;-64
2023/12/09 12:26:53;;;;;;;12.57;3.33;;;;;;;6.81;100.00;99678.53;5110358;28;20070;-65
2023/12/09 12:30:06;;;;;;;15.68;4.43;;;;;;;6.84;100.00;99660.19;5111410;28;20529;-65
2023/12/09 12:33:13;;;;;;;12.20;2.83;;;;;;;6.86;99.26;99640.16;5111774;28;20074;-66
2023/12/09 12:36:35;;;;;;;14.75;3.55;;;;;;;6.95;99.97;99619.72;5111982;28;20062;-67
2023/12/09 12:39:50;;;;;;;9.23;3.30;;;;;;;6.94;100.00;99609.44;5111952;28;20112;-63
2023/12/09 12:43:10;;;;;;;16.35;3.72;;;;;;;6.94;100.00;99599.03;5111770;28;20046;-64
2023/12/09 12:46:29;;;;;;;15.40;3.97;;;;;;;7.05;98.93;99594.13;5111537;28;20101;-64
2023/12/09 12:49:37;;;;;;;15.68;3.47;;;;;;;7.03;98.17;99603.75;5110480;28;20425;-64
2023/12/09 12:52:41;;;;;;;13.68;3.90;;;;;;;7.05;97.65;99599.31;5110886;28;20418;-64
2023/12/09 12:55:44;;;;;;;15.93;4.72;;;;;;;7.17;99.11;99608.22;5111075;28;20054;-68
2023/12/09 12:58:48;;;;;;;11.20;3.42;;;;;;;7.37;98.79;99587.22;5111487;28;20119;-65
2023/12/09 13:01:52;;;;;;;;;;;;;;;7.21;96.95;99568.13;5111778;28;20127;-65
2023/12/09 13:05:07;;;;;;;10.77;2.88;;;;;;;7.10;97.39;99549.69;5127641;28;20378;-66
2023/12/09 13:08:38;;;;;;;13.23;3.25;;;;;;;7.08;97.76;99541.94;5123551;28;20426;-65
2023/12/09 13:12:03;;;;;;;10.93;2.83;;;;;;;7.10;97.57;99528.88;5120606;28;20108;-66
2023/12/09 13:15:39;;;;;;;12.07;3.00;;;;;;;7.04;97.92;99496.25;5126346;28;20403;-67
2023/12/09 13:18:52;;;;;;;7.55;2.70;;;;;;;7.08;96.93;99487.38;5112623;28;20543;-66
2023/12/09 13:21:59;;;;;;;14.50;3.05;;;;;;;7.05;98.32;99474.56;5131624;28;20123;-66
2023/12/09 13:25:04;;;;;;;8.55;2.95;;;;;;;7.04;97.66;99459.03;5128904;28;20046;-66
2023/12/09 13:28:10;;;;;;;10.57;2.50;;;;;;;7.09;97.16;99457.03;5128941;28;20092;-66
2023/12/09 13:31:17;;;;;;;7.95;2.45;;;;;;;7.08;97.33;99448.38;5116283;28;20219;-66
2023/12/09 13:34:26;;;;;;;12.80;2.97;;;;;;;7.06;97.61;99423.41;5110621;28;20093;-66
2023/12/09 13:37:41;;;;;;;10.20;2.60;;;;;;;7.11;97.24;99404.00;5113130;27;20502;-66
2023/12/09 13:40:54;;;;;;;11.20;2.63;;;;;;;7.08;98.18;99390.34;5111453;27;20074;-66
2023/12/09 13:44:13;;;;;;;10.48;3.20;;;;;;;7.08;97.52;99388.59;5114940;27;20055;-67
2023/12/09 13:47:21;;;;;;;7.90;2.20;;;;;;;7.06;96.90;99393.06;5117049;27;20057;-67
2023/12/09 13:50:26;;;;;;;10.93;2.65;;;;;;;7.06;97.28;99385.25;5112905;27;20058;-66
2023/12/09 13:53:29;;;;;;;12.80;2.55;;;;;;;7.08;97.61;99377.34;5109714;27;20335;-66
2023/12/09 13:56:33;;;;;;;8.45;3.28;;;;;;;7.01;98.91;99360.44;5116421;27;20068;-67
2023/12/09 13:59:46;;;;;;;13.80;3.08;;;;;;;6.94;100.00;99344.34;5121765;27;20091;-69
2023/12/09 14:02:50;;;;;;;;;;;;;;;6.91;100.00;99339.31;5113440;27;20112;-67
2023/12/09 14:05:54;;;;;;;;;;;;;;;6.83;100.00;99325.91;5111694;27;19936;-66
2023/12/09 14:08:58;;;;;;;;;;;;;;;6.87;100.00;99328.28;5114057;27;20060;-67
2023/12/09 14:12:04;;;;;;;9.50;2.28;;;;;;;6.92;99.85;99315.88;5115566;27;19965;-67
2023/12/09 14:15:13;;;;;;;9.82;2.70;;;;;;;6.88;100.00;99310.91;5125545;27;20080;-67
2023/12/09 14:18:19;;;;;;;9.77;2.22;;;;;;;7.02;100.00;99290.19;5133864;27;20042;-67
2023/12/09 14:21:29;;;;;;;6.95;1.98;;;;;;;6.86;100.00;99286.78;5130013;27;20064;-67
2023/12/09 14:24:41;;;;;;;10.13;3.33;;;;;;;6.84;100.00;99270.44;5107695;27;20047;-67
2023/12/09 14:27:51;;;;;;;7.78;2.03;;;;;;;6.84;100.00;99267.84;5114875;27;20422;-67
2023/12/09 14:30:57;;;;;;;8.50;1.98;;;;;;;6.88;100.00;99245.97;5124838;27;20054;-67
2023/12/09 14:34:03;;;;;;;7.13;1.85;;;;;;;6.70;100.00;99248.69;5130577;27;20045;-67
2023/12/09 14:37:12;;;;;;;8.27;2.15;;;;;;;6.72;100.00;99252.03;5114084;28;20090;-67
2023/12/09 14:40:35;;;;;;;6.82;1.92;;;;;;;6.68;100.00;99234.13;5132268;27;20053;-67
2023/12/09 14:43:50;;;;;;;4.13;1.35;;;;;;;6.67;100.00;99222.88;5134369;27;20088;-67
2023/12/09 14:47:05;;;;;;;6.15;1.58;;;;;;;6.78;98.86;99221.44;5134331;27;20133;-67
2023/12/09 14:50:12;;;;;;;5.55;1.77;;;;;;;6.68;100.00;99215.94;5117707;27;20492;-67
2023/12/09 14:53:37;;;;;;;5.00;1.30;;;;;;;6.66;100.00;99197.81;5132934;27;20146;-67